createdAt,value
2022-11-19T00:00:12.701Z,70.88
2022-11-19T00:02:41.454Z,71.20
2022-11-19T00:05:10.370Z,70.75
2022-11-19T00:07:39.204Z,70.52
2022-11-19T00:10:08.757Z,70.01
2022-11-19T00:13:00.422Z,69.56
2022-11-19T00:15:30.807Z,70.80
2022-11-19T00:18:00.606Z,70.46
2022-11-19T00:20:30.294Z,70.47
2022-11-19T00:22:59.372Z,70.56
2022-11-19T00:25:31.123Z,70.03
2022-11-19T00:28:00.638Z,70.24
2022-11-19T00:30:47.511Z,70.70
2022-11-19T00:33:17.372Z,71.25
2022-11-19T00:35:46.094Z,71.02
2022-11-19T00:38:14.759Z,71.69
2022-11-19T00:40:44.350Z,70.87
2022-11-19T00:43:30.724Z,70.77
2022-11-19T00:46:00.841Z,70.43
2022-11-19T00:48:29.645Z,70.70
2022-11-19T00:50:58.418Z,70.78
2022-11-19T00:53:27.554Z,70.68
2022-11-19T00:55:56.397Z,71.12
2022-11-19T00:58:25.174Z,72.08
2022-11-19T01:00:53.936Z,71.83
2022-11-19T01:03:25.343Z,71.83
2022-11-19T01:05:54.532Z,73.26
2022-11-19T01:08:23.824Z,72.50
2022-11-19T01:10:52.630Z,72.18
2022-11-19T01:13:36.888Z,71.91
2022-11-19T01:16:09.232Z,72.99
2022-11-19T01:18:42.377Z,74.68
2022-11-19T01:21:13.456Z,73.80
2022-11-19T01:23:44.648Z,72.95
2022-11-19T01:26:14.859Z,73.42
2022-11-19T01:28:44.547Z,73.11
2022-11-19T01:31:16.511Z,72.15
2022-11-19T01:33:47.052Z,71.76
2022-11-19T01:36:18.509Z,72.08
2022-11-19T01:38:50.911Z,71.80
2022-11-19T01:41:20.709Z,72.79
2022-11-19T01:43:53.036Z,72.71
2022-11-19T01:46:24.834Z,74.09
2022-11-19T01:49:00.098Z,73.55
2022-11-19T01:51:38.306Z,73.17
2022-11-19T01:54:13.880Z,72.46
2022-11-19T01:56:42.869Z,72.12
2022-11-19T01:59:19.481Z,72.08
2022-11-19T02:01:48.619Z,72.01
2022-11-19T02:04:21.776Z,72.12
2022-11-19T02:06:50.661Z,71.94
2022-11-19T02:09:20.493Z,71.99
2022-11-19T02:12:18.062Z,71.75
2022-11-19T02:15:13.697Z,71.12
2022-11-19T02:18:13.261Z,70.78
2022-11-19T02:21:20.471Z,71.15
2022-11-19T02:24:39.071Z,70.56
2022-11-19T02:27:52.644Z,71.02
2022-11-19T02:30:22.863Z,71.00
2022-11-19T02:33:07.919Z,70.67
2022-11-19T02:35:51.410Z,70.71
2022-11-19T02:38:34.896Z,71.03
2022-11-19T02:41:28.520Z,70.92
2022-11-19T02:44:21.720Z,70.78
2022-11-19T02:46:55.191Z,70.77
2022-11-19T02:49:31.745Z,71.07
2022-11-19T02:52:01.748Z,71.92
2022-11-19T02:54:30.565Z,72.86
2022-11-19T02:56:59.959Z,73.24
2022-11-19T02:59:56.138Z,72.65
2022-11-19T03:02:49.500Z,71.75
2022-11-19T03:05:26.791Z,71.59
2022-11-19T03:07:55.717Z,71.64
2022-11-19T03:10:31.667Z,71.38
2022-11-19T03:13:29.896Z,71.45
2022-11-19T03:16:17.297Z,70.88
2022-11-19T03:18:56.565Z,70.36
2022-11-19T03:21:34.789Z,70.13
2022-11-19T03:24:12.803Z,70.36
2022-11-19T03:26:48.268Z,70.02
2022-11-19T03:29:18.416Z,69.95
2022-11-19T03:31:54.682Z,69.65
2022-11-19T03:34:30.082Z,69.61
2022-11-19T03:37:02.973Z,70.24
2022-11-19T03:39:33.214Z,70.86
2022-11-19T03:42:02.444Z,70.27
2022-11-19T03:44:40.104Z,70.30
2022-11-19T03:47:14.919Z,70.50
2022-11-19T03:49:52.622Z,70.63
2022-11-19T03:52:22.886Z,70.28
2022-11-19T03:54:51.864Z,69.48
2022-11-19T03:57:24.974Z,69.60
2022-11-19T03:59:53.663Z,69.52
2022-11-19T04:02:22.751Z,69.30
2022-11-19T04:04:52.848Z,69.35
2022-11-19T04:07:24.380Z,70.01
2022-11-19T04:09:53.097Z,69.95
2022-11-19T04:12:24.606Z,69.88
2022-11-19T04:14:54.183Z,69.49
2022-11-19T04:17:22.973Z,69.16
2022-11-19T04:19:53.164Z,69.13
2022-11-19T04:22:21.916Z,69.72
2022-11-19T04:24:50.564Z,69.57
2022-11-19T04:27:19.259Z,69.27
2022-11-19T04:29:48.087Z,69.16
2022-11-19T04:32:17.283Z,69.34
2022-11-19T04:34:46.243Z,69.17
2022-11-19T04:37:16.407Z,69.86
2022-11-19T04:39:45.344Z,69.75
2022-11-19T04:42:14.074Z,69.46
2022-11-19T04:44:42.793Z,69.53
2022-11-19T04:47:11.670Z,69.33
2022-11-19T04:49:40.366Z,69.45
2022-11-19T04:52:09.080Z,69.13
2022-11-19T04:54:39.364Z,69.01
2022-11-19T04:57:08.101Z,69.03
2022-11-19T04:59:36.835Z,69.07
2022-11-19T05:02:05.610Z,69.19
2022-11-19T05:04:34.500Z,69.28
2022-11-19T05:07:04.412Z,68.84
2022-11-19T05:09:33.480Z,69.05
2022-11-19T05:12:03.626Z,69.05
2022-11-19T05:14:34.755Z,68.62
2022-11-19T05:17:03.489Z,68.77
2022-11-19T05:19:32.613Z,68.55
2022-11-19T05:22:01.985Z,68.44
2022-11-19T05:24:31.008Z,68.19
2022-11-19T05:26:59.882Z,68.17
2022-11-19T05:29:31.137Z,68.42
2022-11-19T05:32:00.919Z,68.58
2022-11-19T05:34:29.717Z,69.01
2022-11-19T05:36:58.663Z,68.64
2022-11-19T05:39:27.871Z,68.65
2022-11-19T05:41:56.983Z,69.06
2022-11-19T05:44:26.634Z,68.42
2022-11-19T05:46:59.837Z,68.43
2022-11-19T05:49:28.672Z,68.47
2022-11-19T05:51:57.902Z,68.22
2022-11-19T05:54:26.863Z,68.35
2022-11-19T05:56:56.278Z,68.28
2022-11-19T05:59:26.085Z,68.00
2022-11-19T06:01:57.355Z,68.05
2022-11-19T06:04:26.452Z,67.99
2022-11-19T06:06:55.198Z,67.92
2022-11-19T06:09:24.517Z,67.86
2022-11-19T06:11:53.402Z,67.76
2022-11-19T06:14:24.878Z,67.79
2022-11-19T06:16:58.097Z,68.14
2022-11-19T06:19:28.119Z,68.68
2022-11-19T06:21:57.474Z,69.11
2022-11-19T06:24:26.575Z,68.70
2022-11-19T06:26:55.307Z,68.71
2022-11-19T06:29:24.270Z,68.71
2022-11-19T06:31:53.028Z,68.04
2022-11-19T06:34:23.447Z,68.00
2022-11-19T06:36:53.672Z,68.31
2022-11-19T06:39:22.783Z,68.18
2022-11-19T06:41:51.951Z,68.12
2022-11-19T06:44:20.606Z,67.66
2022-11-19T06:46:49.277Z,67.68
2022-11-19T06:49:20.272Z,67.35
2022-11-19T06:51:50.836Z,67.36
2022-11-19T06:54:19.591Z,67.71
2022-11-19T06:56:48.534Z,67.94
2022-11-19T06:59:17.805Z,67.76
2022-11-19T07:01:49.675Z,67.72
2022-11-19T07:04:18.764Z,68.23
2022-11-19T07:06:51.320Z,68.15
2022-11-19T07:09:20.292Z,68.29
2022-11-19T07:11:50.158Z,68.09
2022-11-19T07:14:19.260Z,68.09
2022-11-19T07:16:48.148Z,67.97
2022-11-19T07:19:17.577Z,67.71
2022-11-19T07:21:46.665Z,67.17
2022-11-19T07:24:18.885Z,67.66
2022-11-19T07:26:47.681Z,67.54
2022-11-19T07:29:17.922Z,67.43
2022-11-19T07:31:50.514Z,67.73
2022-11-19T07:34:19.894Z,67.88
2022-11-19T07:36:49.474Z,67.72
2022-11-19T07:39:20.102Z,68.11
2022-11-19T07:42:06.868Z,68.42
2022-11-19T07:44:35.792Z,68.44
2022-11-19T07:47:05.451Z,68.73
2022-11-19T07:49:34.485Z,69.03
2022-11-19T07:52:03.397Z,68.97
2022-11-19T07:54:33.904Z,68.83
2022-11-19T07:57:02.762Z,69.03
2022-11-19T07:59:33.163Z,69.09
2022-11-19T08:02:02.234Z,69.16
2022-11-19T08:04:32.042Z,69.43
2022-11-19T08:07:03.382Z,69.35
2022-11-19T08:09:34.314Z,69.52
2022-11-19T08:12:03.396Z,69.91
2022-11-19T08:14:32.577Z,69.44
2022-11-19T08:17:21.148Z,69.84
2022-11-19T08:19:50.633Z,70.94
2022-11-19T08:22:20.863Z,70.74
2022-11-19T08:24:51.180Z,71.10
2022-11-19T08:27:20.118Z,71.20
2022-11-19T08:29:49.702Z,71.47
2022-11-19T08:32:19.017Z,71.95
2022-11-19T08:34:50.775Z,72.30
2022-11-19T08:37:19.583Z,72.25
2022-11-19T08:39:48.384Z,72.24
2022-11-19T08:42:38.517Z,72.23
2022-11-19T08:45:10.379Z,72.48
2022-11-19T08:47:41.052Z,72.55
2022-11-19T08:50:11.503Z,72.91
2022-11-19T08:52:40.422Z,73.44
2022-11-19T08:55:15.538Z,73.55
2022-11-19T08:57:49.789Z,73.93
2022-11-19T09:00:21.471Z,75.00
2022-11-19T09:02:50.760Z,74.93
2022-11-19T09:05:19.882Z,76.04
2022-11-19T09:07:49.211Z,75.82
2022-11-19T09:10:19.349Z,76.32
2022-11-19T09:12:50.559Z,77.37
2022-11-19T09:15:19.689Z,77.17
2022-11-19T09:17:48.739Z,78.34
2022-11-19T09:20:20.318Z,77.69
2022-11-19T09:22:52.615Z,77.58
2022-11-19T09:25:22.376Z,77.73
2022-11-19T09:27:56.120Z,77.70
2022-11-19T09:30:26.165Z,78.05
2022-11-19T09:32:56.229Z,78.30
2022-11-19T09:35:26.297Z,78.21
2022-11-19T09:37:55.638Z,78.73
2022-11-19T09:40:25.444Z,78.57
2022-11-19T09:43:14.990Z,79.68
2022-11-19T09:46:02.195Z,80.22
2022-11-19T09:48:37.097Z,80.26
2022-11-19T09:51:12.464Z,81.16
2022-11-19T09:53:50.927Z,81.10
2022-11-19T09:56:31.360Z,81.73
2022-11-19T09:59:08.742Z,81.66
2022-11-19T10:01:39.841Z,82.18
2022-11-19T10:04:13.691Z,81.56
2022-11-19T10:07:01.684Z,81.35
2022-11-19T10:10:00.135Z,80.89
2022-11-19T10:12:57.854Z,80.94
2022-11-19T10:15:43.109Z,80.54
2022-11-19T10:18:28.608Z,80.28
2022-11-19T10:21:08.577Z,79.83
2022-11-19T10:23:51.469Z,79.42
2022-11-19T10:26:28.057Z,79.20
2022-11-19T10:28:59.596Z,77.99
2022-11-19T10:31:40.543Z,76.75
2022-11-19T10:34:19.315Z,76.20
2022-11-19T10:36:57.892Z,74.69
2022-11-19T10:39:36.929Z,74.68
2022-11-19T10:42:20.923Z,74.52
2022-11-19T10:44:57.807Z,74.53
2022-11-19T10:47:39.980Z,74.58
2022-11-19T10:50:17.744Z,74.39
2022-11-19T10:52:53.137Z,73.69
2022-11-19T10:55:29.454Z,73.79
2022-11-19T10:58:12.656Z,73.41
2022-11-19T11:00:44.818Z,73.47
2022-11-19T11:03:24.624Z,74.13
2022-11-19T11:06:02.091Z,74.31
2022-11-19T11:08:31.583Z,74.27
2022-11-19T11:11:02.237Z,73.91
2022-11-19T11:13:56.569Z,73.16
2022-11-19T11:16:39.643Z,73.68
2022-11-19T11:19:16.319Z,73.70
2022-11-19T11:21:47.089Z,73.33
2022-11-19T11:24:16.287Z,73.54
2022-11-19T11:26:44.948Z,73.51
2022-11-19T11:29:28.692Z,73.91
2022-11-19T11:31:57.456Z,72.82
2022-11-19T11:34:43.917Z,72.58
2022-11-19T11:37:13.471Z,72.96
2022-11-19T11:39:44.337Z,72.56
2022-11-19T11:42:20.439Z,72.80
2022-11-19T11:44:55.883Z,72.66
2022-11-19T11:47:30.177Z,72.69
2022-11-19T11:50:10.112Z,72.38
2022-11-19T11:52:45.281Z,71.79
2022-11-19T11:55:18.117Z,72.24
2022-11-19T11:57:56.858Z,72.01
2022-11-19T12:00:38.896Z,71.45
2022-11-19T12:03:11.053Z,71.55
2022-11-19T12:05:56.019Z,72.58
2022-11-19T12:08:50.353Z,73.14
2022-11-19T12:11:27.685Z,73.03
2022-11-19T12:14:09.561Z,73.02
2022-11-19T12:17:01.198Z,72.50
2022-11-19T12:19:49.054Z,72.94
2022-11-19T12:22:33.965Z,73.14
2022-11-19T12:25:31.459Z,72.65
2022-11-19T12:28:27.561Z,72.44
2022-11-19T12:31:13.295Z,72.57
2022-11-19T12:34:04.542Z,72.30
2022-11-19T12:36:48.941Z,72.77
2022-11-19T12:39:41.601Z,72.64
2022-11-19T12:42:50.416Z,72.53
2022-11-19T12:45:37.435Z,72.42
2022-11-19T12:48:37.762Z,72.34
2022-11-19T12:51:16.005Z,72.41
2022-11-19T12:54:34.572Z,73.05
2022-11-19T12:57:34.982Z,73.27
2022-11-19T13:00:15.340Z,72.45
2022-11-19T13:03:07.827Z,73.76
2022-11-19T13:05:47.538Z,73.72
2022-11-19T13:08:24.178Z,73.78
2022-11-19T13:11:06.060Z,73.74
2022-11-19T13:13:41.600Z,73.89
2022-11-19T13:16:15.693Z,74.55
2022-11-19T13:18:49.608Z,73.38
2022-11-19T13:21:38.525Z,73.53
2022-11-19T13:24:20.176Z,74.04
2022-11-19T13:26:52.102Z,74.40
2022-11-19T13:29:44.143Z,74.74
2022-11-19T13:32:21.531Z,75.03
2022-11-19T13:35:05.339Z,74.99
2022-11-19T13:37:56.872Z,74.95
2022-11-19T13:40:35.609Z,76.46
2022-11-19T13:43:32.424Z,77.25
2022-11-19T13:46:18.070Z,76.21
2022-11-19T13:48:57.487Z,76.22
2022-11-19T13:51:34.632Z,76.51
2022-11-19T13:54:07.548Z,76.10
2022-11-19T13:56:43.960Z,76.36
2022-11-19T13:59:36.800Z,77.34
2022-11-19T14:03:02.756Z,78.67
2022-11-19T14:06:00.484Z,78.64
2022-11-19T14:08:52.825Z,79.09
2022-11-19T14:11:47.364Z,79.29
2022-11-19T14:14:55.298Z,78.93
2022-11-19T14:18:01.359Z,78.93
2022-11-19T14:20:58.030Z,78.93
2022-11-19T14:23:59.262Z,78.58
2022-11-19T14:27:17.292Z,79.12
2022-11-19T14:30:08.351Z,79.39
2022-11-19T14:32:46.995Z,78.68
2022-11-19T14:35:44.009Z,78.83
2022-11-19T14:38:37.689Z,78.64
2022-11-19T14:41:32.927Z,78.75
2022-11-19T14:44:14.783Z,78.42
2022-11-19T14:46:50.115Z,78.48
2022-11-19T14:49:38.992Z,79.05
2022-11-19T14:52:22.815Z,80.08
2022-11-19T14:54:58.296Z,80.33
2022-11-19T14:57:32.456Z,80.75
2022-11-19T15:00:05.232Z,80.96
2022-11-19T15:02:45.892Z,80.96
2022-11-19T15:05:22.615Z,80.71
2022-11-19T15:07:56.459Z,80.01
2022-11-19T15:10:48.428Z,79.91
2022-11-19T15:13:36.890Z,79.97
2022-11-19T15:16:14.349Z,79.21
2022-11-19T15:19:32.548Z,79.97
2022-11-19T15:22:45.996Z,80.81
2022-11-19T15:25:38.763Z,81.10
2022-11-19T15:28:33.511Z,80.50
2022-11-19T15:31:36.197Z,79.79
2022-11-19T15:34:49.340Z,79.24
2022-11-19T15:37:34.250Z,80.51
2022-11-19T15:40:04.365Z,80.96
2022-11-19T15:42:43.820Z,80.82
2022-11-19T15:45:21.058Z,80.23
2022-11-19T15:47:57.432Z,79.47
2022-11-19T15:50:29.138Z,79.28
2022-11-19T15:53:04.296Z,78.96
2022-11-19T15:55:33.650Z,78.58
2022-11-19T15:58:09.951Z,79.45
2022-11-19T16:00:47.457Z,80.03
2022-11-19T16:03:17.979Z,80.31
2022-11-19T16:06:03.398Z,80.54
2022-11-19T16:08:33.950Z,80.47
2022-11-19T16:11:22.879Z,80.35
2022-11-19T16:14:10.362Z,80.49
2022-11-19T16:17:00.131Z,80.37
2022-11-19T16:19:31.526Z,80.65
2022-11-19T16:22:06.365Z,80.02
2022-11-19T16:24:52.936Z,80.22
2022-11-19T16:27:26.264Z,80.89
2022-11-19T16:29:56.535Z,80.52
2022-11-19T16:32:28.785Z,80.19
2022-11-19T16:35:12.802Z,79.20
2022-11-19T16:37:43.833Z,79.00
2022-11-19T16:40:18.338Z,79.04
2022-11-19T16:42:54.055Z,78.99
2022-11-19T16:45:28.390Z,78.08
2022-11-19T16:47:59.447Z,78.60
2022-11-19T16:50:32.748Z,78.91
2022-11-19T16:53:05.637Z,78.88
2022-11-19T16:55:50.921Z,78.28
2022-11-19T16:58:26.591Z,78.13
2022-11-19T17:00:59.647Z,79.01
2022-11-19T17:03:39.692Z,79.30
2022-11-19T17:06:21.106Z,79.17
2022-11-19T17:09:01.136Z,78.46
2022-11-19T17:12:10.183Z,77.72
2022-11-19T17:14:53.102Z,77.46
2022-11-19T17:17:40.702Z,77.21
2022-11-19T17:20:49.840Z,78.25
2022-11-19T17:23:21.880Z,77.94
2022-11-19T17:25:55.664Z,77.69
2022-11-19T17:28:38.225Z,77.36
2022-11-19T17:31:16.585Z,77.41
2022-11-19T17:33:54.502Z,76.99
2022-11-19T17:36:25.935Z,77.29
2022-11-19T17:38:55.582Z,77.36
2022-11-19T17:41:44.238Z,77.83
2022-11-19T17:44:35.753Z,78.03
2022-11-19T17:47:21.178Z,77.47
2022-11-19T17:49:51.322Z,77.26
2022-11-19T17:52:25.963Z,76.06
2022-11-19T17:54:58.248Z,77.78
2022-11-19T17:57:28.419Z,77.33
2022-11-19T17:59:57.208Z,76.97
2022-11-19T18:02:26.629Z,76.65
2022-11-19T18:04:56.221Z,76.50
2022-11-19T18:07:25.666Z,76.30
2022-11-19T18:09:54.725Z,77.34
2022-11-19T18:12:23.503Z,77.47
2022-11-19T18:14:56.743Z,76.91
2022-11-19T18:17:29.220Z,77.26
2022-11-19T18:19:58.005Z,76.67
2022-11-19T18:22:26.861Z,76.21
2022-11-19T18:24:57.054Z,76.44
2022-11-19T18:27:26.007Z,76.22
2022-11-19T18:29:56.264Z,75.97
2022-11-19T18:32:24.996Z,76.29
2022-11-19T18:34:57.929Z,77.04
2022-11-19T18:37:30.137Z,77.07
2022-11-19T18:39:59.223Z,77.03
2022-11-19T18:42:28.500Z,77.25
2022-11-19T18:44:57.589Z,77.86
2022-11-19T18:47:26.503Z,77.31
2022-11-19T18:49:55.921Z,76.59
2022-11-19T18:52:24.626Z,76.82
2022-11-19T18:54:54.051Z,76.52
2022-11-19T18:57:22.746Z,76.63
2022-11-19T18:59:51.563Z,76.55
2022-11-19T19:02:21.961Z,75.88
2022-11-19T19:04:51.211Z,75.63
2022-11-19T19:07:20.278Z,75.74
2022-11-19T19:09:49.040Z,75.25
2022-11-19T19:12:19.102Z,76.11
2022-11-19T19:14:51.709Z,75.97
2022-11-19T19:17:22.502Z,75.72
2022-11-19T19:19:51.528Z,75.59
2022-11-19T19:22:20.786Z,75.77
2022-11-19T19:24:52.676Z,76.28
2022-11-19T19:27:25.680Z,76.54
2022-11-19T19:29:54.468Z,76.11
2022-11-19T19:32:24.690Z,75.50
2022-11-19T19:34:53.425Z,75.89
2022-11-19T19:37:22.139Z,75.69
2022-11-19T19:39:50.927Z,75.26
2022-11-19T19:42:19.783Z,74.94
2022-11-19T19:44:48.855Z,75.56
2022-11-19T19:47:17.734Z,75.21
2022-11-19T19:49:48.799Z,75.07
2022-11-19T19:52:17.694Z,75.21
2022-11-19T19:54:46.985Z,75.30
2022-11-19T19:57:16.849Z,74.90
2022-11-19T19:59:45.868Z,74.94
2022-11-19T20:02:16.079Z,74.55
2022-11-19T20:04:46.756Z,75.57
2022-11-19T20:07:16.252Z,75.62
2022-11-19T20:09:45.015Z,75.37
2022-11-19T20:12:14.357Z,74.77
2022-11-19T20:14:43.508Z,74.66
2022-11-19T20:20:27.692Z,74.91
2022-11-19T20:22:57.613Z,75.22
2022-11-19T20:25:26.747Z,75.32
2022-11-19T20:27:55.545Z,74.45
2022-11-19T20:30:24.316Z,74.40
2022-11-19T20:32:53.574Z,74.13
2022-11-19T20:35:23.912Z,74.54
2022-11-19T20:37:54.506Z,74.43
2022-11-19T20:40:24.478Z,74.46
2022-11-19T20:43:10.898Z,74.16
2022-11-19T20:45:40.103Z,74.26
2022-11-19T20:48:09.017Z,74.73
2022-11-19T20:50:38.148Z,74.44
2022-11-19T20:53:08.867Z,74.33
2022-11-19T20:55:53.122Z,73.91
2022-11-19T20:58:28.831Z,73.84
2022-11-19T21:01:03.157Z,73.89
2022-11-19T21:03:36.720Z,74.44
2022-11-19T21:06:09.833Z,73.90
2022-11-19T21:08:40.254Z,75.05
2022-11-19T21:11:16.524Z,74.41
2022-11-19T21:13:46.903Z,74.42
2022-11-19T21:16:19.398Z,74.17
2022-11-19T21:18:51.449Z,75.12
2022-11-19T21:21:24.451Z,75.09
2022-11-19T21:23:56.155Z,74.32
2022-11-19T21:26:27.314Z,74.44
2022-11-19T21:28:58.407Z,74.80
2022-11-19T21:31:38.720Z,74.50
2022-11-19T21:34:09.898Z,74.57
2022-11-19T21:36:40.244Z,74.61
2022-11-19T21:39:12.420Z,74.41
2022-11-19T21:41:41.523Z,74.09
2022-11-19T21:44:11.939Z,74.23
2022-11-19T21:46:45.261Z,74.07
2022-11-19T21:49:14.509Z,73.67
2022-11-19T21:51:43.628Z,73.34
2022-11-19T21:54:13.937Z,73.19
2022-11-19T21:56:43.469Z,73.44
2022-11-19T21:59:12.260Z,73.57
2022-11-19T22:01:40.947Z,73.97
2022-11-19T22:04:09.751Z,73.65
2022-11-19T22:06:38.454Z,73.46
2022-11-19T22:09:07.194Z,73.52
2022-11-19T22:11:37.394Z,73.73
2022-11-19T22:14:09.587Z,73.96
2022-11-19T22:16:40.934Z,73.81
2022-11-19T22:19:24.662Z,73.41
2022-11-19T22:21:53.539Z,74.23
2022-11-19T22:24:22.288Z,74.71
2022-11-19T22:26:52.681Z,74.18
2022-11-19T22:29:21.733Z,73.67
2022-11-19T22:31:50.533Z,73.33
2022-11-19T22:34:19.268Z,74.15
2022-11-19T22:36:48.130Z,73.94
2022-11-19T22:39:18.571Z,74.38
2022-11-19T22:41:47.450Z,74.00
2022-11-19T22:44:17.673Z,74.74
2022-11-19T22:46:47.176Z,74.94
2022-11-19T22:49:16.035Z,74.15
2022-11-19T22:51:44.780Z,73.54
2022-11-19T22:54:15.344Z,73.33
2022-11-19T22:56:44.294Z,73.52
2022-11-19T22:59:13.594Z,73.46
2022-11-19T23:01:43.717Z,73.33
2022-11-19T23:04:16.273Z,73.00
2022-11-19T23:06:45.320Z,73.85
2022-11-19T23:09:14.036Z,73.36
2022-11-19T23:12:00.279Z,73.26
2022-11-19T23:14:30.068Z,73.09
2022-11-19T23:17:00.305Z,73.79
2022-11-19T23:19:29.159Z,74.02
2022-11-19T23:21:57.846Z,73.95
2022-11-19T23:24:26.628Z,73.80
2022-11-19T23:26:55.472Z,73.42
2022-11-19T23:29:24.211Z,73.68
2022-11-19T23:31:52.983Z,73.73
2022-11-19T23:34:23.098Z,73.85
2022-11-19T23:36:51.874Z,74.17
2022-11-19T23:39:20.934Z,74.95
2022-11-19T23:41:50.003Z,74.56
2022-11-19T23:44:18.822Z,73.57
2022-11-19T23:46:47.634Z,73.39
2022-11-19T23:49:16.336Z,73.18
2022-11-19T23:51:46.620Z,72.90
2022-11-19T23:54:16.311Z,72.87
2022-11-19T23:56:46.731Z,73.51
2022-11-19T23:59:15.503Z,73.84
